createdAt,value
2024-03-31T00:02:00.812Z,8.9
2024-03-31T00:07:06.206Z,8.7
2024-03-31T00:12:09.900Z,8.8
2024-03-31T00:17:13.466Z,8.8
2024-03-31T00:32:26.121Z,8.8
2024-03-31T00:37:31.904Z,8.8
2024-03-31T00:42:35.157Z,8.8
2024-03-31T00:47:38.730Z,8.7
2024-03-31T00:52:43.245Z,8.7
2024-03-31T00:57:47.761Z,8.6
2024-03-31T01:02:52.292Z,8.6
2024-03-31T01:07:55.888Z,8.6
2024-03-31T01:12:59.395Z,8.6
2024-03-31T01:18:03.919Z,8.6
2024-03-31T01:23:08.479Z,8.6
2024-03-31T01:28:12.029Z,8.6
2024-03-31T01:33:16.552Z,8.6
2024-03-31T01:38:21.063Z,8.6
2024-03-31T01:43:25.620Z,8.7
2024-03-31T01:48:29.166Z,8.7
2024-03-31T01:53:33.680Z,8.7
2024-03-31T01:58:38.213Z,8.8
2024-03-31T02:03:41.781Z,8.7
2024-03-31T02:08:46.312Z,8.7
2024-03-31T02:13:50.831Z,8.7
2024-03-31T02:18:54.411Z,8.8
2024-03-31T02:23:58.948Z,8.8
2024-03-31T02:29:03.453Z,8.8
2024-03-31T02:34:07.078Z,8.7
2024-03-31T02:39:11.637Z,8.7
2024-03-31T02:44:16.095Z,8.8
2024-03-31T02:49:20.640Z,8.8
2024-03-31T02:54:24.212Z,8.8
2024-03-31T02:59:28.745Z,8.9
2024-03-31T03:04:33.238Z,9
2024-03-31T03:09:36.778Z,9
2024-03-31T03:14:41.329Z,9.1
2024-03-31T03:19:45.879Z,9.1
2024-03-31T03:24:49.434Z,9
2024-03-31T03:29:53.947Z,9.2
2024-03-31T03:34:58.508Z,9.2
2024-03-31T03:40:02.048Z,9.2
2024-03-31T03:45:06.570Z,9.2
2024-03-31T03:50:11.097Z,9.3
2024-03-31T03:55:15.618Z,9.4
2024-03-31T04:00:19.194Z,9.4
2024-03-31T04:05:23.737Z,9.3
2024-03-31T04:10:28.267Z,9.4
2024-03-31T04:15:31.773Z,9.5
2024-03-31T04:20:36.339Z,9.5
2024-03-31T04:25:40.879Z,9.5
2024-03-31T04:30:44.445Z,9.5
2024-03-31T04:35:48.974Z,9.6
2024-03-31T04:40:53.506Z,9.5
2024-03-31T04:45:57.098Z,9.5
2024-03-31T04:51:01.563Z,9.5
2024-03-31T04:56:06.172Z,9.6
2024-03-31T05:01:10.671Z,9.6
2024-03-31T05:06:15.327Z,9.5
2024-03-31T05:11:19.854Z,9.7
2024-03-31T05:16:24.403Z,9.8
2024-03-31T05:21:28.104Z,9.7
2024-03-31T05:31:36.003Z,9.6
2024-03-31T05:36:40.549Z,9.6
2024-03-31T05:41:45.123Z,9.6
2024-03-31T05:51:53.156Z,9.5
2024-03-31T06:02:01.271Z,9.5
2024-03-31T06:07:05.810Z,9.5
2024-03-31T06:12:10.316Z,9.6
2024-03-31T06:17:13.898Z,9.5
2024-03-31T06:22:18.447Z,9.5
2024-03-31T06:27:22.977Z,9.6
2024-03-31T06:32:26.506Z,9.8
2024-03-31T06:37:31.007Z,9.8
2024-03-31T06:42:35.582Z,9.6
2024-03-31T06:47:40.194Z,9.8
2024-03-31T06:52:43.647Z,9.9
2024-03-31T06:57:48.230Z,9.9
2024-03-31T07:02:52.742Z,9.8
2024-03-31T07:07:56.288Z,9.9
2024-03-31T07:13:00.787Z,10
2024-03-31T07:18:05.371Z,10.1
2024-03-31T07:23:08.901Z,10.1
2024-03-31T07:28:13.427Z,10.2
2024-03-31T07:33:17.959Z,10.3
2024-03-31T07:38:21.495Z,10.1
2024-03-31T07:43:26.013Z,10.2
2024-03-31T07:48:30.537Z,10.1
2024-03-31T07:53:35.119Z,10.5
2024-03-31T07:58:38.656Z,10.5
2024-03-31T08:03:43.169Z,10.3
2024-03-31T08:08:47.742Z,10.3
2024-03-31T08:13:51.246Z,10.3
2024-03-31T08:18:55.824Z,10.4
2024-03-31T08:24:00.316Z,10.6
2024-03-31T08:29:03.914Z,10.5
2024-03-31T08:34:08.463Z,10.6
2024-03-31T08:39:13.009Z,10.7
2024-03-31T08:44:16.480Z,10.6
2024-03-31T08:49:21.032Z,10.4
2024-03-31T08:54:25.723Z,10.7
2024-03-31T08:59:30.103Z,10.5
2024-03-31T09:04:33.660Z,10.7
2024-03-31T09:09:38.194Z,10.8
2024-03-31T09:14:42.719Z,10.7
2024-03-31T09:19:46.305Z,10.6
2024-03-31T09:24:50.882Z,10.5
2024-03-31T09:29:55.373Z,10.8
2024-03-31T09:34:58.903Z,10.6
2024-03-31T09:40:03.457Z,10.8
2024-03-31T09:45:07.005Z,10.5
2024-03-31T09:50:11.529Z,10.9
2024-03-31T09:55:16.071Z,10.7
2024-03-31T10:00:19.656Z,11
2024-03-31T10:05:24.624Z,10.9
2024-03-31T10:10:28.708Z,10.7
2024-03-31T10:15:32.199Z,11
2024-03-31T10:20:36.775Z,10.8
2024-03-31T10:25:41.312Z,10.9
2024-03-31T10:30:44.872Z,10.9
2024-03-31T10:35:49.375Z,11.2
2024-03-31T10:40:53.952Z,11
2024-03-31T10:45:58.489Z,11.5
2024-03-31T10:56:06.531Z,10.8
2024-03-31T11:01:11.075Z,10.8
2024-03-31T11:06:14.642Z,10.8
2024-03-31T11:11:19.163Z,11.4
2024-03-31T11:16:23.771Z,11
2024-03-31T11:21:27.228Z,11.1
2024-03-31T11:31:36.311Z,10.2
2024-03-31T11:36:39.898Z,10.5
2024-03-31T11:41:44.381Z,10.5
2024-03-31T11:46:48.945Z,10.4
2024-03-31T11:51:53.489Z,10.4
2024-03-31T11:56:57.030Z,10.5
2024-03-31T12:02:01.547Z,10.8
2024-03-31T12:07:06.090Z,10.6
2024-03-31T12:12:09.650Z,11
2024-03-31T12:17:14.173Z,11.1
2024-03-31T12:27:22.256Z,9.9
2024-03-31T12:32:27.200Z,10
2024-03-31T12:37:31.309Z,9.9
2024-03-31T12:42:34.880Z,9.9
2024-03-31T12:47:39.394Z,10.1
2024-03-31T12:52:43.929Z,10.3
2024-03-31T12:57:48.471Z,10.4
2024-03-31T13:02:52.018Z,10.4
2024-03-31T13:07:56.606Z,10.5
2024-03-31T13:13:01.125Z,10.6
2024-03-31T13:18:04.638Z,10.4
2024-03-31T13:23:09.197Z,10.3
2024-03-31T13:28:13.722Z,10.3
2024-03-31T13:33:17.281Z,10.4
2024-03-31T13:38:21.790Z,10.3
2024-03-31T13:43:26.327Z,10.5
2024-03-31T13:48:29.931Z,10.4
2024-03-31T13:58:38.009Z,10.4
2024-03-31T14:03:42.516Z,10.5
2024-03-31T14:08:47.052Z,10.6
2024-03-31T14:13:50.578Z,10.6
2024-03-31T14:18:55.101Z,10.5
2024-03-31T14:23:59.636Z,10.6
2024-03-31T14:29:04.226Z,10.7
2024-03-31T14:34:07.722Z,10.6
2024-03-31T14:39:12.267Z,10.8
2024-03-31T14:44:16.814Z,10.9
2024-03-31T14:49:20.333Z,10.6
2024-03-31T14:54:24.883Z,10.7
2024-03-31T14:59:29.413Z,10.7
2024-03-31T15:04:32.964Z,10.8
2024-03-31T15:09:37.535Z,10.6
2024-03-31T15:14:42.017Z,10.8
2024-03-31T15:19:45.601Z,10.6
2024-03-31T15:24:50.128Z,10.9
2024-03-31T15:29:54.635Z,10.8
2024-03-31T15:35:10.655Z,10.9
2024-03-31T15:40:02.782Z,10.9
2024-03-31T15:45:07.303Z,11
2024-03-31T15:55:15.345Z,10.9
2024-03-31T16:00:19.920Z,11.1
2024-03-31T16:05:24.464Z,11.6
2024-03-31T16:10:27.997Z,11.4
2024-03-31T16:15:32.531Z,11.6
2024-03-31T16:20:37.065Z,11.3
2024-03-31T16:25:40.589Z,10.8
2024-03-31T16:30:45.149Z,10.7
2024-03-31T16:35:49.678Z,10.7
2024-03-31T16:40:54.175Z,10.1
2024-03-31T16:45:58.109Z,10.2
2024-03-31T17:01:10.372Z,10.2
2024-03-31T17:06:14.904Z,10.5
2024-03-31T17:11:19.455Z,10.7
2024-03-31T17:16:22.964Z,10.6
2024-03-31T17:21:27.492Z,10.4
2024-03-31T17:31:35.613Z,10.4
2024-03-31T17:36:40.139Z,10.4
2024-03-31T17:41:44.647Z,10.4
2024-03-31T17:46:49.175Z,10.4
2024-03-31T17:51:52.902Z,10.4
2024-03-31T17:56:57.259Z,10.4
2024-03-31T18:07:05.372Z,10.5
2024-03-31T18:12:08.955Z,10.2
2024-03-31T18:17:13.474Z,10.3
2024-03-31T18:22:18.014Z,10
2024-03-31T18:27:22.512Z,10
2024-03-31T18:32:26.091Z,10.1
2024-03-31T18:37:30.583Z,10
2024-03-31T18:42:35.461Z,10
2024-03-31T18:47:38.696Z,10
2024-03-31T18:52:43.217Z,9.9
2024-03-31T18:57:47.774Z,9.8
2024-03-31T19:02:51.300Z,9.8
2024-03-31T19:07:55.833Z,9.6
2024-03-31T19:13:00.346Z,9.4
2024-03-31T19:18:03.943Z,9.5
2024-03-31T19:23:08.439Z,9.4
2024-03-31T19:28:13.003Z,9.4
2024-03-31T19:33:17.528Z,9.3
2024-03-31T19:38:21.033Z,9.5
2024-03-31T19:43:25.588Z,9.4
2024-03-31T19:48:30.107Z,9.4
2024-03-31T19:53:33.658Z,9.5
2024-03-31T19:58:38.213Z,9.4
2024-03-31T20:03:42.760Z,9.4
2024-03-31T20:13:50.840Z,9.3
2024-03-31T20:18:55.358Z,9.3
2024-03-31T20:23:58.932Z,9.2
2024-03-31T20:29:03.421Z,9.3
2024-03-31T20:34:08.213Z,9.2
2024-03-31T20:39:12.504Z,9.3
2024-03-31T20:44:16.034Z,9.3
2024-03-31T20:49:20.611Z,9.2
2024-03-31T20:54:25.140Z,9.4
2024-03-31T20:59:28.723Z,9.3
2024-03-31T21:04:33.215Z,9.3
2024-03-31T21:09:37.747Z,9.3
2024-03-31T21:19:46.925Z,9.3
2024-03-31T21:24:51.441Z,9.4
2024-03-31T21:29:54.995Z,9.3
2024-03-31T21:34:59.552Z,9.3
2024-03-31T21:40:04.101Z,9.3
2024-03-31T21:45:08.609Z,9.3
2024-03-31T21:50:12.146Z,9.3
2024-03-31T21:55:16.705Z,9.2
2024-03-31T22:00:21.208Z,9.3
2024-03-31T22:05:24.788Z,9.3
2024-03-31T22:10:29.327Z,9.3
2024-03-31T22:15:33.815Z,9.4
2024-03-31T22:20:37.435Z,9.4
2024-03-31T22:25:41.899Z,9.2
2024-03-31T22:30:45.483Z,9.2
2024-03-31T22:35:50.019Z,9.2
2024-03-31T22:40:54.522Z,9.3
2024-03-31T22:45:58.102Z,9.2
2024-03-31T22:56:07.195Z,9.2
2024-03-31T23:01:10.698Z,9.3
2024-03-31T23:06:15.253Z,9.2
2024-03-31T23:11:19.780Z,9.3
2024-03-31T23:21:27.858Z,9.1
2024-03-31T23:31:36.966Z,9.3
2024-03-31T23:36:40.489Z,9.3
2024-03-31T23:41:44.995Z,9.2
2024-03-31T23:51:53.115Z,9.1
